createdAt,value
2019-02-19T00:01:08.202Z,34.11
2019-02-19T00:03:36.772Z,34.01
2019-02-19T00:06:04.957Z,33.69
2019-02-19T00:08:33.487Z,33.40
2019-02-19T00:11:02.053Z,33.40
2019-02-19T00:13:31.583Z,33.50
2019-02-19T00:15:59.936Z,33.94
2019-02-19T00:18:27.385Z,34.13
2019-02-19T00:20:55.756Z,34.37
2019-02-19T00:23:23.704Z,34.28
2019-02-19T00:25:51.973Z,34.30
2019-02-19T00:28:21.110Z,34.28
2019-02-19T00:30:49.404Z,34.31
2019-02-19T00:33:17.653Z,34.29
2019-02-19T00:35:46.218Z,34.53
2019-02-19T00:39:33.966Z,34.31
2019-02-19T00:42:01.198Z,34.55
2019-02-19T00:44:28.920Z,34.55
2019-02-19T00:46:56.147Z,34.40
2019-02-19T00:49:23.723Z,34.46
2019-02-19T00:51:51.717Z,34.33
2019-02-19T00:54:19.172Z,34.46
2019-02-19T00:56:46.405Z,34.60
2019-02-19T00:59:13.740Z,34.53
2019-02-19T01:01:41.434Z,34.50
2019-02-19T01:04:08.711Z,34.50
2019-02-19T01:06:36.248Z,33.66
2019-02-19T01:09:04.584Z,33.79
2019-02-19T01:11:32.192Z,33.77
2019-02-19T01:13:59.652Z,33.48
2019-02-19T01:16:27.128Z,33.78
2019-02-19T01:18:54.822Z,34.16
2019-02-19T01:21:22.038Z,34.16
2019-02-19T01:23:49.250Z,34.43
2019-02-19T01:26:16.424Z,34.26
2019-02-19T01:28:44.146Z,34.50
2019-02-19T01:31:11.842Z,34.37
2019-02-19T01:33:39.026Z,34.49
2019-02-19T01:36:06.593Z,34.69
2019-02-19T01:38:34.373Z,34.67
2019-02-19T01:41:01.756Z,34.67
2019-02-19T01:43:29.221Z,34.82
2019-02-19T01:45:56.445Z,34.50
2019-02-19T01:48:23.949Z,34.49
2019-02-19T01:50:51.389Z,34.22
2019-02-19T01:53:18.848Z,33.96
2019-02-19T01:55:46.785Z,33.60
2019-02-19T01:58:14.269Z,33.60
2019-02-19T02:00:41.482Z,33.63
2019-02-19T02:03:09.034Z,33.64
2019-02-19T02:05:36.222Z,33.88
2019-02-19T02:08:03.420Z,34.34
2019-02-19T02:10:30.647Z,34.47
2019-02-19T02:12:58.475Z,34.49
2019-02-19T02:15:25.256Z,34.48
2019-02-19T02:17:52.720Z,34.50
2019-02-19T02:20:20.220Z,34.57
2019-02-19T02:22:47.443Z,34.48
2019-02-19T02:25:14.711Z,34.59
2019-02-19T02:27:42.469Z,34.64
2019-02-19T02:30:09.688Z,34.74
2019-02-19T02:32:37.602Z,34.57
2019-02-19T02:35:05.291Z,34.20
2019-02-19T02:37:33.500Z,34.29
2019-02-19T02:40:01.688Z,34.19
2019-02-19T02:42:29.421Z,33.86
2019-02-19T02:44:56.663Z,33.72
2019-02-19T02:47:24.923Z,33.71
2019-02-19T02:49:53.998Z,33.81
2019-02-19T02:52:22.615Z,34.23
2019-02-19T02:54:56.334Z,34.23
2019-02-19T02:57:42.390Z,34.40
2019-02-19T03:00:12.519Z,34.64
2019-02-19T03:02:40.962Z,34.66
2019-02-19T03:05:09.383Z,34.84
2019-02-19T03:07:48.414Z,34.69
2019-02-19T03:10:17.723Z,34.48
2019-02-19T03:12:46.712Z,34.02
2019-02-19T03:15:16.492Z,33.94
2019-02-19T03:17:45.236Z,33.81
2019-02-19T03:20:13.473Z,33.94
2019-02-19T03:22:40.710Z,34.37
2019-02-19T03:25:08.429Z,34.54
2019-02-19T03:27:36.429Z,34.67
2019-02-19T03:30:05.067Z,34.81
2019-02-19T03:32:32.788Z,34.58
2019-02-19T03:35:00.942Z,34.72
2019-02-19T03:37:29.494Z,34.52
2019-02-19T03:39:57.314Z,34.63
2019-02-19T03:42:24.837Z,34.59
2019-02-19T03:44:53.118Z,35.00
2019-02-19T03:47:20.886Z,34.66
2019-02-19T03:49:49.372Z,34.37
2019-02-19T03:52:16.832Z,34.27
2019-02-19T03:54:44.350Z,34.41
2019-02-19T03:57:11.886Z,33.79
2019-02-19T03:59:40.122Z,33.79
2019-02-19T04:02:09.195Z,33.96
2019-02-19T04:04:37.978Z,34.36
2019-02-19T04:07:06.508Z,34.57
2019-02-19T04:09:35.259Z,34.49
2019-02-19T04:12:02.752Z,34.65
2019-02-19T04:14:30.256Z,34.60
2019-02-19T04:16:58.229Z,34.92
2019-02-19T04:19:26.203Z,34.77
2019-02-19T04:21:54.949Z,34.88
2019-02-19T04:24:23.769Z,34.71
2019-02-19T04:26:51.597Z,34.71
2019-02-19T04:29:19.417Z,34.67
2019-02-19T04:31:47.487Z,34.47
2019-02-19T04:34:15.567Z,34.32
2019-02-19T04:36:44.075Z,34.12
2019-02-19T04:39:11.573Z,34.12
2019-02-19T04:41:38.940Z,33.91
2019-02-19T04:44:06.415Z,33.90
2019-02-19T04:46:33.875Z,34.23
2019-02-19T04:49:01.348Z,34.50
2019-02-19T04:51:28.616Z,34.54
2019-02-19T04:53:57.357Z,34.51
2019-02-19T04:56:25.105Z,34.78
2019-02-19T04:58:52.868Z,34.65
2019-02-19T05:01:20.491Z,34.73
2019-02-19T05:03:48.640Z,34.71
2019-02-19T05:06:15.958Z,34.67
2019-02-19T05:08:44.648Z,35.00
2019-02-19T05:11:12.665Z,34.80
2019-02-19T05:13:40.407Z,34.68
2019-02-19T05:16:07.690Z,34.50
2019-02-19T05:18:35.432Z,34.15
2019-02-19T05:21:03.373Z,34.10
2019-02-19T05:23:32.082Z,34.09
2019-02-19T05:26:00.306Z,34.05
2019-02-19T05:28:28.862Z,33.96
2019-02-19T05:30:56.553Z,34.23
2019-02-19T05:33:24.427Z,34.60
2019-02-19T05:35:51.701Z,34.77
2019-02-19T05:38:19.852Z,34.72
2019-02-19T05:40:47.527Z,34.72
2019-02-19T05:43:15.335Z,34.76
2019-02-19T05:45:42.676Z,34.91
2019-02-19T05:48:10.239Z,34.84
2019-02-19T05:50:39.394Z,34.92
2019-02-19T05:53:07.530Z,35.10
2019-02-19T05:55:35.984Z,35.02
2019-02-19T05:58:03.463Z,34.96
2019-02-19T06:00:31.623Z,34.49
2019-02-19T06:03:00.027Z,34.35
2019-02-19T06:05:28.018Z,33.99
2019-02-19T06:07:55.712Z,34.13
2019-02-19T06:10:23.056Z,33.90
2019-02-19T06:12:50.261Z,34.36
2019-02-19T06:15:18.400Z,34.76
2019-02-19T06:17:46.140Z,34.50
2019-02-19T06:20:14.045Z,34.83
2019-02-19T06:22:41.650Z,34.90
2019-02-19T06:25:09.302Z,34.99
2019-02-19T06:27:36.768Z,35.21
2019-02-19T06:30:07.546Z,35.26
2019-02-19T06:32:34.787Z,34.98
2019-02-19T06:35:02.803Z,35.11
2019-02-19T06:37:30.017Z,35.29
2019-02-19T06:39:57.286Z,36.04
2019-02-19T06:42:25.235Z,35.47
2019-02-19T06:44:53.185Z,35.60
2019-02-19T06:47:21.214Z,35.13
2019-02-19T06:49:49.913Z,34.50
2019-02-19T06:52:18.329Z,34.48
2019-02-19T06:54:47.699Z,35.02
2019-02-19T06:57:16.148Z,35.26
2019-02-19T06:59:44.293Z,35.49
2019-02-19T07:02:25.025Z,35.80
2019-02-19T07:04:55.777Z,35.47
2019-02-19T07:07:23.893Z,35.58
2019-02-19T07:09:52.014Z,35.78
2019-02-19T07:12:19.389Z,35.84
2019-02-19T07:14:46.688Z,36.19
2019-02-19T07:17:15.910Z,36.14
2019-02-19T07:19:44.279Z,35.97
2019-02-19T07:22:11.645Z,36.04
2019-02-19T07:24:40.542Z,36.12
2019-02-19T07:27:09.701Z,36.12
2019-02-19T07:29:39.072Z,36.16
2019-02-19T07:32:08.483Z,36.51
2019-02-19T07:34:37.826Z,36.70
2019-02-19T07:37:06.947Z,36.14
2019-02-19T07:39:36.090Z,36.02
2019-02-19T07:42:04.473Z,35.70
2019-02-19T07:44:33.983Z,35.84
2019-02-19T07:47:02.915Z,36.08
2019-02-19T07:49:31.292Z,35.41
2019-02-19T07:52:01.019Z,35.11
2019-02-19T07:54:30.439Z,35.11
2019-02-19T07:56:58.567Z,34.73
2019-02-19T07:59:26.851Z,34.29
2019-02-19T08:01:54.802Z,34.06
2019-02-19T08:04:22.674Z,33.57
2019-02-19T08:06:50.829Z,33.94
2019-02-19T08:09:19.350Z,33.94
2019-02-19T08:11:47.711Z,34.00
2019-02-19T08:14:15.978Z,34.00
2019-02-19T08:16:44.153Z,33.87
2019-02-19T08:19:11.831Z,33.87
2019-02-19T08:21:41.807Z,34.13
2019-02-19T08:24:10.953Z,34.10
2019-02-19T08:26:39.830Z,34.16
2019-02-19T08:29:13.770Z,34.13
2019-02-19T08:31:39.672Z,34.13
2019-02-19T08:34:09.392Z,34.16
2019-02-19T08:36:38.475Z,34.00
2019-02-19T08:39:05.874Z,33.55
2019-02-19T08:41:35.106Z,33.63
2019-02-19T08:44:04.518Z,33.37
2019-02-19T08:46:33.682Z,33.17
2019-02-19T08:49:03.375Z,33.06
2019-02-19T08:51:31.722Z,33.64
2019-02-19T08:54:01.545Z,33.64
2019-02-19T08:56:29.474Z,33.64
2019-02-19T08:58:58.894Z,33.78
2019-02-19T09:01:26.671Z,33.80
2019-02-19T09:03:54.780Z,33.80
2019-02-19T09:06:23.261Z,33.57
2019-02-19T09:08:51.308Z,33.39
2019-02-19T09:11:19.651Z,33.30
2019-02-19T09:13:48.116Z,33.23
2019-02-19T09:16:15.585Z,33.04
2019-02-19T09:18:43.508Z,32.56
2019-02-19T09:21:11.295Z,32.39
2019-02-19T09:23:39.344Z,32.64
2019-02-19T09:26:06.888Z,32.34
2019-02-19T09:28:34.719Z,32.80
2019-02-19T09:31:01.944Z,32.22
2019-02-19T09:33:29.661Z,32.44
2019-02-19T09:35:57.899Z,32.20
2019-02-19T09:38:26.300Z,32.46
2019-02-19T09:40:54.264Z,32.36
2019-02-19T09:43:21.687Z,32.29
2019-02-19T09:45:49.546Z,32.36
2019-02-19T09:48:17.636Z,32.35
2019-02-19T09:50:45.207Z,32.33
2019-02-19T09:53:13.215Z,32.06
2019-02-19T09:58:22.095Z,31.85
2019-02-19T10:00:49.749Z,32.15
2019-02-19T10:03:18.584Z,31.99
2019-02-19T10:05:48.166Z,32.10
2019-02-19T10:08:16.332Z,31.55
2019-02-19T10:10:44.120Z,31.30
2019-02-19T10:13:12.274Z,31.79
2019-02-19T10:15:41.464Z,31.95
2019-02-19T10:18:10.901Z,32.11
2019-02-19T10:20:42.133Z,32.10
2019-02-19T10:23:11.073Z,32.28
2019-02-19T10:25:39.609Z,32.46
2019-02-19T10:28:09.000Z,32.29
2019-02-19T10:30:38.423Z,32.46
2019-02-19T10:33:09.389Z,32.47
2019-02-19T10:35:40.036Z,31.90
2019-02-19T10:38:10.270Z,31.90
2019-02-19T10:40:39.849Z,31.66
2019-02-19T10:43:09.385Z,31.95
2019-02-19T10:45:37.165Z,31.95
2019-02-19T10:48:05.273Z,31.60
2019-02-19T10:50:33.525Z,31.80
2019-02-19T10:53:02.421Z,31.93
2019-02-19T10:55:30.886Z,31.93
2019-02-19T10:57:59.666Z,32.07
2019-02-19T11:00:27.862Z,32.04
2019-02-19T11:02:56.068Z,32.12
2019-02-19T11:05:24.872Z,32.15
2019-02-19T11:07:56.717Z,32.07
2019-02-19T11:10:25.068Z,31.95
2019-02-19T11:12:53.331Z,31.73
2019-02-19T11:15:22.880Z,31.45
2019-02-19T11:17:52.363Z,31.61
2019-02-19T11:20:20.644Z,31.37
2019-02-19T11:22:49.723Z,31.54
2019-02-19T11:25:18.915Z,31.54
2019-02-19T11:27:47.447Z,31.17
2019-02-19T11:30:16.505Z,31.67
2019-02-19T11:32:45.052Z,31.66
2019-02-19T11:35:14.141Z,31.81
2019-02-19T11:37:42.346Z,31.50
2019-02-19T11:40:11.216Z,31.50
2019-02-19T11:42:39.477Z,31.89
2019-02-19T11:45:11.073Z,31.89
2019-02-19T11:47:39.070Z,31.45
2019-02-19T11:50:07.819Z,31.42
2019-02-19T11:52:36.692Z,30.99
2019-02-19T11:55:05.478Z,30.99
2019-02-19T11:57:33.491Z,31.28
2019-02-19T12:00:02.461Z,31.47
2019-02-19T12:02:32.867Z,31.12
2019-02-19T12:05:01.570Z,31.12
2019-02-19T12:07:29.574Z,31.43
2019-02-19T12:09:57.906Z,32.19
2019-02-19T12:12:26.295Z,31.98
2019-02-19T12:14:54.872Z,32.24
2019-02-19T12:17:23.537Z,32.30
2019-02-19T12:19:52.460Z,32.34
2019-02-19T12:22:21.619Z,32.28
2019-02-19T12:24:50.453Z,32.40
2019-02-19T12:27:18.661Z,32.51
2019-02-19T12:29:48.060Z,32.54
2019-02-19T12:32:18.041Z,32.72
2019-02-19T12:34:48.311Z,33.21
2019-02-19T12:37:19.173Z,33.11
2019-02-19T12:39:49.064Z,33.14
2019-02-19T12:42:19.643Z,33.30
2019-02-19T12:44:48.001Z,33.67
2019-02-19T12:47:17.718Z,33.49
2019-02-19T12:49:48.202Z,33.64
2019-02-19T12:52:18.376Z,33.81
2019-02-19T12:54:49.313Z,34.05
2019-02-19T12:57:19.400Z,33.67
2019-02-19T12:59:56.455Z,33.78
2019-02-19T13:02:20.550Z,33.84
2019-02-19T13:04:51.357Z,34.26
2019-02-19T13:07:21.112Z,33.69
2019-02-19T13:09:53.265Z,33.08
2019-02-19T13:12:23.355Z,33.07
2019-02-19T13:14:52.973Z,32.86
2019-02-19T13:17:23.574Z,32.50
2019-02-19T13:19:53.824Z,32.95
2019-02-19T13:22:22.585Z,32.81
2019-02-19T13:24:50.795Z,33.09
2019-02-19T13:27:19.753Z,33.24
2019-02-19T13:29:47.960Z,33.00
2019-02-19T13:32:16.198Z,33.93
2019-02-19T13:34:46.647Z,34.88
2019-02-19T13:37:16.637Z,34.75
2019-02-19T13:39:46.320Z,34.55
2019-02-19T13:42:16.472Z,34.57
2019-02-19T13:44:45.025Z,34.31
2019-02-19T13:47:15.559Z,33.57
2019-02-19T13:49:47.520Z,33.57
2019-02-19T13:52:27.900Z,33.03
2019-02-19T13:55:03.787Z,32.67
2019-02-19T13:57:32.835Z,33.05
2019-02-19T14:00:03.062Z,33.32
2019-02-19T14:02:33.999Z,33.24
2019-02-19T14:05:03.559Z,33.31
2019-02-19T14:07:34.302Z,33.27
2019-02-19T14:10:03.677Z,33.23
2019-02-19T14:12:32.898Z,33.24
2019-02-19T14:15:12.978Z,32.93
2019-02-19T14:17:42.921Z,32.78
2019-02-19T14:20:31.478Z,32.62
2019-02-19T14:23:20.668Z,33.21
2019-02-19T14:26:12.636Z,33.01
2019-02-19T14:28:58.694Z,33.01
2019-02-19T14:31:46.344Z,33.15
2019-02-19T14:34:36.955Z,32.86
2019-02-19T14:37:24.988Z,33.00
2019-02-19T14:40:12.343Z,33.09
2019-02-19T14:43:03.325Z,33.20
2019-02-19T14:45:50.529Z,33.11
2019-02-19T14:48:39.242Z,32.88
2019-02-19T14:51:31.847Z,32.41
2019-02-19T14:54:20.043Z,32.99
2019-02-19T14:57:11.790Z,32.55
2019-02-19T14:59:58.607Z,32.55
2019-02-19T15:02:41.814Z,32.85
2019-02-19T15:05:31.748Z,32.85
2019-02-19T15:08:18.486Z,32.97
2019-02-19T15:11:26.100Z,33.07
2019-02-19T15:14:12.495Z,33.08
2019-02-19T15:16:51.460Z,32.56
2019-02-19T15:19:42.498Z,33.06
2019-02-19T15:22:27.181Z,33.12
2019-02-19T15:25:10.022Z,33.13
2019-02-19T15:28:01.133Z,32.92
2019-02-19T15:30:53.586Z,32.97
2019-02-19T15:33:54.287Z,33.12
2019-02-19T15:36:35.402Z,33.08
2019-02-19T15:39:21.891Z,33.07
2019-02-19T15:42:18.575Z,32.77
2019-02-19T15:45:06.207Z,34.02
2019-02-19T15:47:53.501Z,34.87
2019-02-19T15:50:41.403Z,34.31
2019-02-19T15:53:24.733Z,34.16
2019-02-19T15:56:07.090Z,33.67
2019-02-19T15:59:14.130Z,33.56
2019-02-19T16:02:02.174Z,33.70
2019-02-19T16:04:40.906Z,33.87
2019-02-19T16:07:24.924Z,33.74
2019-02-19T16:10:18.938Z,33.39
2019-02-19T16:13:09.651Z,33.32
2019-02-19T16:16:00.496Z,33.80
2019-02-19T16:18:34.511Z,33.57
2019-02-19T16:21:25.647Z,33.57
2019-02-19T16:24:22.528Z,33.94
2019-02-19T16:27:10.534Z,33.63
2019-02-19T16:29:59.155Z,34.05
2019-02-19T16:32:47.264Z,34.01
2019-02-19T16:35:49.546Z,33.90
2019-02-19T16:38:37.084Z,33.58
2019-02-19T16:41:16.973Z,34.02
2019-02-19T16:44:07.120Z,34.00
2019-02-19T16:46:49.976Z,33.67
2019-02-19T16:49:38.593Z,33.45
2019-02-19T16:52:45.361Z,33.45
2019-02-19T16:55:26.490Z,33.96
2019-02-19T16:58:13.850Z,34.02
2019-02-19T17:00:59.553Z,34.11
2019-02-19T17:03:47.274Z,33.83
2019-02-19T17:06:34.842Z,33.60
2019-02-19T17:09:26.746Z,34.08
2019-02-19T17:12:16.966Z,34.60
2019-02-19T17:15:10.816Z,34.60
2019-02-19T17:18:17.146Z,33.86
2019-02-19T17:21:16.815Z,33.79
2019-02-19T17:23:52.311Z,34.19
2019-02-19T17:26:30.322Z,34.14
2019-02-19T17:29:13.592Z,33.90
2019-02-19T17:31:52.392Z,33.85
2019-02-19T17:34:31.688Z,33.91
2019-02-19T17:37:18.795Z,34.30
2019-02-19T17:40:07.392Z,34.46
2019-02-19T17:42:45.354Z,34.53
2019-02-19T17:45:33.985Z,34.06
2019-02-19T17:48:23.087Z,34.15
2019-02-19T17:51:20.609Z,33.87
2019-02-19T17:54:06.508Z,34.45
2019-02-19T17:57:01.997Z,34.54
2019-02-19T17:59:50.503Z,33.97
2019-02-19T18:02:26.819Z,34.19
2019-02-19T18:05:15.171Z,34.40
2019-02-19T18:08:02.546Z,34.37
2019-02-19T18:10:50.930Z,34.46
2019-02-19T18:13:32.456Z,34.27
2019-02-19T18:16:10.546Z,34.19
2019-02-19T18:18:52.369Z,34.56
2019-02-19T18:21:20.558Z,34.75
2019-02-19T18:23:48.634Z,34.64
2019-02-19T18:26:17.008Z,34.88
2019-02-19T18:28:45.845Z,35.64
2019-02-19T18:31:14.308Z,36.03
2019-02-19T18:33:43.195Z,35.51
2019-02-19T18:39:43.600Z,34.91
2019-02-19T18:42:11.895Z,34.67
2019-02-19T18:44:41.268Z,34.84
2019-02-19T18:50:58.556Z,34.97
2019-02-19T18:53:26.860Z,35.36
2019-02-19T18:55:58.705Z,35.36
2019-02-19T18:58:29.731Z,35.19
2019-02-19T19:00:58.005Z,35.24
2019-02-19T19:03:27.454Z,35.22
2019-02-19T19:05:56.736Z,35.44
2019-02-19T19:08:26.087Z,35.37
2019-02-19T19:10:54.269Z,35.93
2019-02-19T19:13:23.166Z,35.93
2019-02-19T19:15:52.499Z,35.56
2019-02-19T19:18:22.630Z,35.36
2019-02-19T19:20:53.987Z,34.87
2019-02-19T19:23:24.296Z,35.81
2019-02-19T19:25:53.007Z,35.89
2019-02-19T19:28:26.735Z,35.71
2019-02-19T19:30:58.572Z,36.10
2019-02-19T19:33:28.952Z,36.03
2019-02-19T19:35:58.240Z,36.01
2019-02-19T19:38:29.232Z,36.27
2019-02-19T19:40:57.839Z,36.44
2019-02-19T19:43:28.989Z,36.43
2019-02-19T19:45:58.017Z,36.43
2019-02-19T19:48:28.778Z,36.08
2019-02-19T19:50:58.880Z,35.26
2019-02-19T19:53:27.913Z,35.26
2019-02-19T19:56:02.512Z,35.93
2019-02-19T19:58:35.498Z,35.93
2019-02-19T20:01:05.832Z,35.99
2019-02-19T20:03:36.089Z,36.35
2019-02-19T20:06:06.576Z,36.27
2019-02-19T20:08:36.579Z,36.30
2019-02-19T20:11:07.927Z,36.21
2019-02-19T20:13:38.710Z,35.83
2019-02-19T20:16:07.367Z,35.82
2019-02-19T20:18:39.191Z,35.69
2019-02-19T20:21:45.166Z,35.78
2019-02-19T20:24:13.272Z,35.72
2019-02-19T20:26:41.524Z,35.52
2019-02-19T20:29:10.127Z,35.75
2019-02-19T20:31:39.012Z,35.98
2019-02-19T20:34:07.540Z,35.79
2019-02-19T20:36:36.260Z,35.74
2019-02-19T20:39:05.331Z,35.63
2019-02-19T20:41:34.236Z,35.79
2019-02-19T20:44:03.603Z,35.79
2019-02-19T20:46:34.404Z,35.69
2019-02-19T20:49:03.341Z,35.31
2019-02-19T20:51:36.289Z,35.45
2019-02-19T20:54:05.901Z,35.41
2019-02-19T20:56:35.232Z,35.53
2019-02-19T20:59:04.948Z,35.22
2019-02-19T21:01:34.673Z,35.09
2019-02-19T21:04:04.081Z,35.18
2019-02-19T21:06:33.659Z,35.19
2019-02-19T21:09:04.453Z,35.03
2019-02-19T21:11:32.963Z,35.20
2019-02-19T21:14:02.506Z,35.05
2019-02-19T21:16:30.960Z,35.45
2019-02-19T21:19:01.148Z,35.67
2019-02-19T21:21:31.869Z,35.53
2019-02-19T21:24:01.991Z,34.98
2019-02-19T21:26:32.476Z,34.87
2019-02-19T21:29:03.034Z,34.58
2019-02-19T21:31:31.879Z,34.41
2019-02-19T21:34:01.857Z,34.17
2019-02-19T21:36:31.620Z,34.15
2019-02-19T21:39:00.065Z,34.37
2019-02-19T21:41:28.239Z,34.84
2019-02-19T21:43:57.975Z,34.55
2019-02-19T21:46:27.876Z,34.66
2019-02-19T21:48:57.394Z,35.04
2019-02-19T21:51:25.987Z,34.84
2019-02-19T21:53:54.558Z,34.88
2019-02-19T21:56:23.024Z,34.57
2019-02-19T21:58:52.077Z,34.58
2019-02-19T22:01:20.125Z,34.72
2019-02-19T22:03:49.596Z,34.59
2019-02-19T22:06:17.908Z,34.69
2019-02-19T22:08:46.349Z,34.77
2019-02-19T22:11:15.615Z,34.22
2019-02-19T22:13:44.258Z,34.15
2019-02-19T22:16:13.657Z,34.03
2019-02-19T22:18:44.009Z,34.08
2019-02-19T22:21:29.566Z,34.76
2019-02-19T22:23:59.434Z,34.70
2019-02-19T22:26:29.624Z,34.78
2019-02-19T22:29:00.467Z,34.66
2019-02-19T22:31:29.590Z,34.38
2019-02-19T22:33:59.699Z,34.53
2019-02-19T22:36:29.557Z,34.34
2019-02-19T22:39:00.386Z,34.14
2019-02-19T22:41:33.235Z,33.83
2019-02-19T22:44:03.740Z,33.61
2019-02-19T22:46:33.655Z,33.62
2019-02-19T22:49:03.520Z,33.53
2019-02-19T22:51:31.467Z,34.16
2019-02-19T22:54:11.446Z,34.19
2019-02-19T22:56:41.850Z,34.20
2019-02-19T22:59:09.893Z,34.36
2019-02-19T23:01:44.469Z,34.36
2019-02-19T23:04:12.486Z,34.56
2019-02-19T23:06:40.786Z,34.68
2019-02-19T23:11:26.585Z,34.72
2019-02-19T23:13:54.245Z,34.60
2019-02-19T23:16:21.907Z,34.11
2019-02-19T23:18:49.586Z,34.18
2019-02-19T23:21:17.429Z,33.95
2019-02-19T23:23:45.187Z,33.83
2019-02-19T23:26:13.419Z,33.86
2019-02-19T23:28:42.051Z,33.98
2019-02-19T23:31:10.983Z,34.32
2019-02-19T23:33:39.408Z,34.28
2019-02-19T23:36:21.416Z,34.45
2019-02-19T23:38:52.582Z,34.50
2019-02-19T23:41:21.064Z,34.44
2019-02-19T23:43:50.979Z,34.65
2019-02-19T23:46:19.456Z,34.78
2019-02-19T23:48:48.373Z,34.75
2019-02-19T23:51:17.603Z,34.72
2019-02-19T23:53:47.106Z,34.42
2019-02-19T23:56:17.627Z,34.11
2019-02-19T23:58:47.782Z,34.03
